Time;durP1;ratioP1;P1;durP2;ratioP2;P2;SDS_P1;SDS_P2;PMS_P1;PMS_P2;Temp;Humidity;BMP_temperature;BMP_pressure;BME280_temperature;BME280_humidity;BME280_pressure;Samples;Min_cycle;Max_cycle;Signal;HPM_P1;HPM_P2
2021/10/02 00:48:17;;;;;;;0.17;0.17;;;14.30;90.30;13.50;101171.00;;;;31021126;28;20057;-66
2021/10/02 01:03:54;;;;;;;0.10;0.10;;;14.30;90.60;13.50;101172.00;;;;31041511;28;20130;-66
2021/10/02 01:19:53;;;;;;;0.10;0.10;;;14.30;90.40;13.40;101131.00;;;;31037120;28;20111;-66
2021/10/02 01:50:10;;;;;;;0.10;0.10;;;14.00;90.90;13.20;101129.00;;;;31161264;28;20120;-66
2021/10/02 02:05:16;;;;;;;0.15;0.15;;;14.10;91.50;13.20;101113.00;;;;31171000;28;20281;-66
2021/10/02 02:20:49;;;;;;;0.10;0.10;;;14.00;90.90;13.20;101114.00;;;;31186846;28;20049;-66
2021/10/02 02:35:52;;;;;;;0.10;0.10;;;14.00;90.90;13.20;101105.00;;;;31197976;28;20080;-66
2021/10/02 02:51:10;;;;;;;0.10;0.10;;;14.00;90.90;13.20;101105.00;;;;31168502;28;20574;-66
2021/10/02 03:06:13;;;;;;;0.10;0.10;;;14.00;91.50;13.20;101075.00;;;;31168414;28;20111;-64
2021/10/02 03:21:21;;;;;;;0.10;0.10;;;14.00;91.30;13.10;101070.00;;;;31152694;28;20527;-65
2021/10/02 03:36:22;;;;;;;0.10;0.10;;;14.00;91.20;13.10;101075.00;;;;31165686;28;20153;-65
2021/10/02 03:51:27;;;;;;;0.10;0.10;;;13.90;91.20;13.20;101081.00;;;;31140236;28;20071;-65
2021/10/02 04:06:30;;;;;;;0.10;0.10;;;14.00;91.80;13.20;101096.00;;;;31160246;28;20383;-65
2021/10/02 04:21:33;;;;;;;1.05;1.05;;;14.00;91.20;13.10;101096.00;;;;31160980;28;20128;-65
2021/10/02 04:36:34;;;;;;;0.20;0.20;;;14.00;91.40;13.10;101084.00;;;;31159543;28;20056;-65
2021/10/02 04:51:39;;;;;;;0.10;0.10;;;13.90;91.20;13.10;101080.00;;;;31161474;28;20046;-65
2021/10/02 05:06:49;;;;;;;0.10;0.10;;;13.90;91.70;13.10;101083.00;;;;31137590;28;20117;-65
2021/10/02 05:21:50;;;;;;;0.20;0.20;;;13.90;91.20;13.10;101091.00;;;;31175531;28;20037;-65
2021/10/02 05:36:51;;;;;;;0.10;0.10;;;13.90;91.20;13.10;101099.00;;;;31140209;28;20111;-65
2021/10/02 05:51:54;;;;;;;0.10;0.10;;;14.00;91.20;13.20;101101.00;;;;31143606;28;20049;-65
2021/10/02 06:07:01;;;;;;;0.20;0.20;;;14.00;91.80;13.20;101114.00;;;;31168815;28;20042;-65
2021/10/02 06:22:02;;;;;;;0.20;0.20;;;14.00;91.00;13.20;101083.00;;;;31182390;28;20164;-65
2021/10/02 06:37:03;;;;;;;0.10;0.10;;;13.90;91.00;13.20;101116.00;;;;31177794;28;20452;-65
2021/10/02 06:52:10;;;;;;;0.10;0.10;;;14.00;91.10;13.30;101115.00;;;;31175118;28;20037;-65
2021/10/02 07:07:17;;;;;;;6.78;0.85;;;14.20;91.10;13.60;101126.00;;;;31173981;28;20107;-64
2021/10/02 07:22:19;;;;;;;0.10;0.10;;;14.50;90.30;13.80;101062.00;;;;31165139;28;20065;-65
2021/10/02 07:37:20;;;;;;;0.10;0.10;;;14.10;89.40;14.00;101065.00;;;;31161970;28;20563;-65
2021/10/02 07:52:22;;;;;;;0.10;0.10;;;14.80;89.00;14.10;101062.00;;;;31161792;28;20076;-64
2021/10/02 08:07:24;;;;;;;0.20;0.20;;;14.80;90.00;14.30;101033.00;;;;31161299;28;20385;-64
2021/10/02 08:22:29;;;;;;;0.10;0.10;;;15.20;88.40;14.60;101051.00;;;;31163499;28;20103;-65
2021/10/02 08:37:30;;;;;;;0.32;0.32;;;15.40;86.90;14.70;101031.00;;;;31160559;28;20565;-65
2021/10/02 08:52:32;;;;;;;0.17;0.17;;;15.40;87.90;15.00;101006.00;;;;31157702;28;20679;-64
2021/10/02 09:07:35;;;;;;;0.10;0.10;;;15.70;87.40;15.60;100985.00;;;;31164621;28;20411;-65
2021/10/02 09:22:37;;;;;;;0.10;0.10;;;16.30;84.90;15.60;100992.00;;;;31154647;28;20825;-65
2021/10/02 09:37:41;;;;;;;0.22;0.22;;;16.30;84.30;15.70;100970.00;;;;31163095;28;20624;-65
2021/10/02 09:52:50;;;;;;;0.10;0.10;;;16.20;85.00;16.30;100943.00;;;;31176392;28;20107;-65
2021/10/02 10:08:02;;;;;;;0.17;0.17;;;16.80;83.50;16.30;100939.00;;;;31164607;28;20842;-65
2021/10/02 10:23:06;;;;;;;0.25;0.25;;;17.20;78.70;16.60;100902.00;;;;31177669;28;20828;-65
2021/10/02 10:38:16;;;;;;;0.20;0.20;;;17.00;78.60;16.40;100894.00;;;;31168168;28;20045;-65
2021/10/02 10:53:18;;;;;;;0.10;0.10;;;17.20;78.70;17.00;100875.00;;;;31168968;28;20073;-66
2021/10/02 11:09:04;;;;;;;11.97;0.63;;;17.50;78.50;16.70;100858.00;;;;31184076;28;20140;-65
2021/10/02 11:24:14;;;;;;;0.10;0.10;;;17.60;77.90;17.30;100833.00;;;;31166288;28;20045;-66
2021/10/02 11:39:27;;;;;;;0.10;0.10;;;18.10;75.10;17.60;100804.00;;;;31164416;28;20045;-65
2021/10/02 11:54:30;;;;;;;0.10;0.10;;;18.30;75.90;17.60;100760.00;;;;31160529;28;20523;-65
2021/10/02 12:09:57;;;;;;;0.10;0.10;;;18.20;76.70;17.70;100722.00;;;;31159328;28;20091;-66
2021/10/02 12:25:08;;;;;;;0.10;0.10;;;18.60;74.30;18.10;100702.00;;;;31155463;28;20064;-65
2021/10/02 12:40:15;;;;;;;0.10;0.10;;;18.50;74.30;18.00;100685.00;;;;31136614;28;20142;-65
2021/10/02 12:55:18;;;;;;;0.10;0.10;;;18.60;73.20;18.00;100645.00;;;;31143483;23;20041;-64
2021/10/02 13:10:21;;;;;;;0.10;0.10;;;18.70;74.30;18.10;100609.00;;;;31242824;22;20498;-64
2021/10/02 13:25:25;;;;;;;0.10;0.10;;;18.60;74.20;18.00;100586.00;;;;31294771;23;20041;-64
2021/10/02 13:40:37;;;;;;;0.10;0.10;;;18.40;74.50;17.70;100566.00;;;;31250376;28;20196;-64
2021/10/02 13:55:41;;;;;;;0.07;0.07;;;18.30;75.00;17.70;100514.00;;;;31250594;28;20514;-64
2021/10/02 14:11:06;;;;;;;0.03;0.03;;;18.30;75.00;17.70;100505.00;;;;31258763;28;20658;-64
2021/10/02 14:26:07;;;;;;;0.10;0.10;;;18.20;73.30;17.60;100490.00;;;;31257296;28;20131;-64
2021/10/02 14:41:09;;;;;;;0.10;0.10;;;18.20;73.20;17.60;100467.00;;;;31271779;28;20056;-65
2021/10/02 14:56:11;;;;;;;0.17;0.17;;;18.10;68.90;17.40;100416.00;;;;31273623;28;20049;-62
2021/10/02 15:11:13;;;;;;;0.87;0.87;;;17.70;68.40;17.20;100364.00;;;;32325966;23;20021;-63
2021/10/02 15:26:20;;;;;;;0.20;0.20;;;17.70;67.10;17.00;100320.00;;;;31387903;28;20387;-62
2021/10/02 15:41:22;;;;;;;0.20;0.20;;;17.60;67.80;16.90;100284.00;;;;31402276;28;20028;-63
2021/10/02 15:56:28;;;;;;;0.10;0.10;;;17.50;68.90;16.70;100304.00;;;;31395465;28;20817;-63
2021/10/02 16:11:31;;;;;;;0.13;0.13;;;17.20;69.70;16.50;100277.00;;;;31387242;28;20052;-63
2021/10/02 16:26:35;;;;;;;0.17;0.17;;;17.10;69.80;16.40;100196.00;;;;31386308;28;20585;-63
2021/10/02 16:41:37;;;;;;;0.10;0.10;;;17.00;70.10;16.20;100175.00;;;;31385322;28;20044;-61
2021/10/02 16:56:39;;;;;;;0.10;0.10;;;16.90;70.30;16.10;100152.00;;;;31377167;28;20858;-62
2021/10/02 17:11:41;;;;;;;0.15;0.15;;;16.80;71.80;16.00;100123.00;;;;31376338;28;20057;-61
2021/10/02 17:26:43;;;;;;;0.08;0.08;;;16.60;73.80;15.80;100087.00;;;;31380766;28;20506;-62
2021/10/02 17:41:45;;;;;;;0.10;0.10;;;16.40;75.00;15.70;100046.00;;;;31378716;28;20095;-62
2021/10/02 17:56:47;;;;;;;0.30;0.30;;;16.40;75.80;15.60;100015.00;;;;31371955;28;20044;-63
2021/10/02 18:11:48;;;;;;;0.20;0.20;;;16.20;78.20;15.50;99985.00;;;;31393705;28;20056;-62
2021/10/02 18:27:01;;;;;;;0.10;0.10;;;16.10;80.00;15.30;99945.00;;;;31396362;28;20057;-62
2021/10/02 18:42:03;;;;;;;0.20;0.20;;;16.00;82.00;15.20;99919.00;;;;31389640;28;20068;-63
2021/10/02 18:57:05;;;;;;;0.20;0.20;;;15.90;84.80;15.10;99870.00;;;;31394682;28;20174;-63
2021/10/02 19:12:06;;;;;;;0.30;0.30;;;15.80;86.10;15.10;99827.00;;;;31385074;28;20052;-63
2021/10/02 19:27:07;;;;;;;0.10;0.10;;;15.70;87.10;15.10;99787.00;;;;31374961;28;20127;-62
2021/10/02 19:42:09;;;;;;;0.00;0.00;;;15.70;89.40;15.00;99736.00;;;;31395085;28;20045;-61
2021/10/02 19:57:13;;;;;;;0.57;0.57;;;15.70;89.40;15.00;99701.00;;;;31393108;28;20083;-62
2021/10/02 20:12:15;;;;;;;0.10;0.10;;;15.70;90.40;15.00;99668.00;;;;31353260;28;20506;-63
2021/10/02 20:27:17;;;;;;;0.20;0.20;;;15.70;90.10;15.10;99650.00;;;;31382318;28;20696;-62
2021/10/02 20:42:18;;;;;;;0.10;0.10;;;15.80;90.00;15.20;99639.00;;;;31376352;28;20054;-62
2021/10/02 20:57:26;;;;;;;0.10;0.10;;;15.80;90.20;15.20;99616.00;;;;31379103;28;20130;-62
2021/10/02 21:12:27;;;;;;;0.20;0.20;;;15.60;90.30;15.30;99590.00;;;;31375133;28;20063;-62
2021/10/02 21:27:29;;;;;;;0.10;0.10;;;16.00;90.60;15.30;99587.00;;;;31373084;28;20044;-62
2021/10/02 21:42:30;;;;;;;0.10;0.10;;;16.00;90.80;15.40;99564.00;;;;31400783;28;20695;-62
2021/10/02 21:57:57;;;;;;;0.10;0.10;;;16.10;91.50;15.70;99543.00;;;;31413914;28;20649;-62
2021/10/02 22:12:58;;;;;;;0.10;0.10;;;16.50;90.70;16.10;99540.00;;;;31427447;28;20129;-62
2021/10/02 22:28:00;;;;;;;0.32;0.32;;;16.70;90.50;16.30;99527.00;;;;31400724;28;20123;-62
2021/10/02 22:43:03;;;;;;;0.10;0.10;;;16.90;90.70;16.30;99531.00;;;;31413983;28;20054;-62
2021/10/02 22:58:06;;;;;;;0.10;0.10;;;16.80;91.10;16.30;99517.00;;;;31388298;28;20041;-64
2021/10/02 23:13:07;;;;;;;;;;;16.90;91.30;16.30;99528.00;;;;31392597;28;20048;-62
2021/10/02 23:28:13;;;;;;;0.10;0.10;;;17.00;91.20;16.40;99539.00;;;;31395568;28;19970;-62
2021/10/02 23:43:16;;;;;;;0.10;0.10;;;17.00;91.10;16.50;99534.00;;;;31398746;28;20136;-62
2021/10/02 23:58:21;;;;;;;;;;;17.10;91.10;16.60;99539.00;;;;31391132;28;20407;-63
